createdAt,value
2023-04-27T00:03:32.680Z,10.20
2023-04-27T00:08:37.429Z,9.60
2023-04-27T00:13:41.473Z,7.80
2023-04-27T00:18:45.685Z,9.20
2023-04-27T00:23:49.719Z,9.60
2023-04-27T00:28:53.857Z,10.60
2023-04-27T00:33:57.885Z,10.10
2023-04-27T00:39:04.617Z,9.20
2023-04-27T00:44:09.344Z,8.50
2023-04-27T00:49:13.683Z,8.60
2023-04-27T00:54:21.847Z,7.70
2023-04-27T00:59:26.132Z,7.40
2023-04-27T01:04:32.674Z,7.30
2023-04-27T01:09:37.061Z,7.40
2023-04-27T01:14:41.091Z,6.10
2023-04-27T01:19:45.640Z,8.20
2023-04-27T01:24:49.896Z,6.70
2023-04-27T01:29:53.803Z,7.60
2023-04-27T01:34:57.857Z,7.90
2023-04-27T01:40:04.872Z,6.60
2023-04-27T01:45:10.110Z,9.50
2023-04-27T01:50:14.969Z,6.40
2023-04-27T01:55:19.196Z,6.50
2023-04-27T02:00:23.432Z,8.00
2023-04-27T02:05:29.206Z,8.60
2023-04-27T02:10:33.147Z,7.20
2023-04-27T02:15:37.579Z,7.80
2023-04-27T02:20:42.031Z,6.90
2023-04-27T02:25:47.261Z,6.00
2023-04-27T02:30:51.214Z,6.10
2023-04-27T02:35:55.566Z,5.80
2023-04-27T02:41:00.195Z,7.50
2023-04-27T02:46:05.199Z,5.80
2023-04-27T02:51:09.186Z,6.40
2023-04-27T02:56:13.203Z,4.70
2023-04-27T03:01:17.909Z,4.50
2023-04-27T03:06:21.990Z,6.50
2023-04-27T03:11:26.130Z,6.00
2023-04-27T03:16:32.917Z,5.80
2023-04-27T03:21:37.157Z,5.10
2023-04-27T03:26:41.196Z,5.90
2023-04-27T03:31:45.400Z,3.90
2023-04-27T03:36:49.797Z,4.60
2023-04-27T03:41:53.796Z,5.40
2023-04-27T03:46:58.051Z,5.30
2023-04-27T03:52:02.169Z,4.60
2023-04-27T03:57:06.207Z,5.00
2023-04-27T04:02:11.964Z,5.20
2023-04-27T04:07:17.441Z,5.20
2023-04-27T04:12:21.365Z,5.50
2023-04-27T04:17:25.515Z,4.40
2023-04-27T04:22:29.647Z,4.80
2023-04-27T04:27:33.987Z,3.80
2023-04-27T04:32:40.837Z,4.20
2023-04-27T04:37:44.906Z,5.80
2023-04-27T04:42:49.350Z,4.20
2023-04-27T04:47:54.843Z,4.20
2023-04-27T04:52:58.856Z,4.00
2023-04-27T04:58:03.711Z,4.80
2023-04-27T05:03:08.010Z,3.40
2023-04-27T05:08:12.381Z,3.80
2023-04-27T05:13:17.019Z,3.40
2023-04-27T05:18:21.084Z,3.00
2023-04-27T05:23:25.403Z,3.60
2023-04-27T05:28:29.330Z,3.40
2023-04-27T05:33:33.562Z,4.50
2023-04-27T05:38:40.697Z,3.50
2023-04-27T05:43:45.011Z,3.60
2023-04-27T05:48:49.041Z,5.30
2023-04-27T05:53:55.743Z,4.50
2023-04-27T05:59:01.874Z,7.00
2023-04-27T06:04:09.853Z,3.10
2023-04-27T06:09:15.095Z,6.90
2023-04-27T06:14:19.134Z,10.90
2023-04-27T06:19:23.874Z,6.70
2023-04-27T06:24:29.150Z,4.50
2023-04-27T06:29:33.077Z,6.50
2023-04-27T06:34:37.201Z,3.90
2023-04-27T06:39:41.165Z,5.50
2023-04-27T06:44:45.269Z,7.40
2023-04-27T06:49:50.076Z,6.90
2023-04-27T06:54:54.892Z,8.20
2023-04-27T06:59:58.905Z,7.40
2023-04-27T07:05:03.051Z,7.10
2023-04-27T07:10:08.413Z,3.30
2023-04-27T07:15:12.746Z,5.80
2023-04-27T07:20:17.804Z,7.60
2023-04-27T07:25:22.038Z,9.30
2023-04-27T07:30:26.227Z,4.90
2023-04-27T07:35:30.498Z,9.20
2023-04-27T07:40:35.073Z,6.20
2023-04-27T07:45:41.856Z,6.70
2023-04-27T07:50:46.441Z,8.40
2023-04-27T07:55:50.534Z,4.70
2023-04-27T08:00:54.456Z,3.80
2023-04-27T08:05:59.015Z,7.50
2023-04-27T08:11:03.041Z,4.20
2023-04-27T08:16:07.431Z,3.00
2023-04-27T08:21:11.598Z,5.90
2023-04-27T08:26:17.084Z,31.10
2023-04-27T08:31:22.336Z,51.30
2023-04-27T08:36:26.885Z,84.10
2023-04-27T08:41:31.325Z,103.80
2023-04-27T08:46:35.286Z,120.30
2023-04-27T08:51:39.188Z,99.50
2023-04-27T08:56:43.296Z,88.90
2023-04-27T09:01:49.403Z,71.30
2023-04-27T09:06:53.541Z,70.20
2023-04-27T09:11:58.072Z,68.50
2023-04-27T09:17:02.340Z,64.10
2023-04-27T09:22:08.718Z,64.90
2023-04-27T09:27:21.852Z,61.10
2023-04-27T09:32:25.698Z,59.10
2023-04-27T09:37:31.094Z,54.10
2023-04-27T09:42:35.277Z,51.50
2023-04-27T09:47:39.840Z,49.10
2023-04-27T09:52:47.429Z,50.00
2023-04-27T09:58:22.173Z,47.80
2023-04-27T10:03:52.523Z,46.10
2023-04-27T10:08:57.853Z,39.40
2023-04-27T10:14:08.438Z,47.60
2023-04-27T10:19:13.103Z,44.10
2023-04-27T10:24:17.216Z,39.70
2023-04-27T10:29:21.974Z,35.50
2023-04-27T10:34:28.667Z,36.80
2023-04-27T10:39:47.950Z,34.00
2023-04-27T10:44:57.420Z,38.40
2023-04-27T10:50:01.750Z,33.20
2023-04-27T10:55:14.470Z,32.70
2023-04-27T11:00:26.378Z,31.60
2023-04-27T11:05:33.674Z,30.90
2023-04-27T11:10:46.652Z,30.80
2023-04-27T11:15:52.978Z,26.80
2023-04-27T11:21:14.439Z,23.00
2023-04-27T11:26:26.244Z,22.60
2023-04-27T11:31:44.089Z,24.20
2023-04-27T11:42:20.154Z,22.50
2023-04-27T11:47:25.772Z,20.40
2023-04-27T11:52:30.737Z,21.20
2023-04-27T11:57:39.112Z,20.40
2023-04-27T12:02:44.653Z,18.70
2023-04-27T12:07:48.918Z,20.70
2023-04-27T12:12:52.992Z,17.90
2023-04-27T12:17:57.077Z,20.40
2023-04-27T12:23:01.272Z,16.60
2023-04-27T12:28:05.296Z,18.40
2023-04-27T12:33:11.524Z,15.20
2023-04-27T12:38:15.608Z,16.60
2023-04-27T12:43:19.731Z,16.40
2023-04-27T12:48:24.018Z,22.40
2023-04-27T12:53:29.142Z,15.60
2023-04-27T12:58:32.980Z,14.00
2023-04-27T13:03:36.900Z,20.00
2023-04-27T13:08:42.149Z,10.90
2023-04-27T13:13:46.310Z,12.70
2023-04-27T13:18:50.941Z,13.60
2023-04-27T13:23:55.378Z,12.30
2023-04-27T13:28:59.413Z,14.90
2023-04-27T13:34:05.088Z,12.70
2023-04-27T13:39:09.154Z,11.00
2023-04-27T13:44:13.423Z,11.40
2023-04-27T13:49:17.735Z,12.50
2023-04-27T13:54:22.137Z,9.20
2023-04-27T13:59:26.370Z,8.00
2023-04-27T14:04:30.388Z,8.30
2023-04-27T14:09:34.461Z,8.80
2023-04-27T14:14:39.912Z,14.40
2023-04-27T14:19:44.781Z,29.30
2023-04-27T14:24:49.167Z,48.30
2023-04-27T14:29:54.353Z,69.30
2023-04-27T14:34:58.905Z,108.30
2023-04-27T14:40:05.493Z,133.10
2023-04-27T14:45:11.396Z,99.20
2023-04-27T14:50:16.827Z,76.20
2023-04-27T14:55:21.785Z,80.50
2023-04-27T15:00:26.130Z,75.00
2023-04-27T15:05:30.265Z,80.30
2023-04-27T15:10:34.097Z,71.60
2023-04-27T15:15:38.358Z,74.00
2023-04-27T15:20:43.599Z,64.80
2023-04-27T15:25:51.858Z,61.30
2023-04-27T15:30:56.724Z,56.00
2023-04-27T15:36:01.111Z,58.40
2023-04-27T15:41:07.175Z,57.80
2023-04-27T15:46:12.177Z,50.20
2023-04-27T15:51:16.179Z,53.60
2023-04-27T15:56:20.723Z,48.80
2023-04-27T16:01:26.715Z,45.40
2023-04-27T16:06:35.387Z,46.90
2023-04-27T16:11:39.682Z,40.80
2023-04-27T16:16:43.554Z,45.30
2023-04-27T16:21:48.250Z,39.00
2023-04-27T16:26:52.077Z,35.90
2023-04-27T16:31:56.054Z,41.90
2023-04-27T16:37:00.170Z,32.50
2023-04-27T16:42:05.213Z,33.50
2023-04-27T16:47:09.016Z,35.20
2023-04-27T16:52:13.200Z,30.40
2023-04-27T16:57:17.487Z,36.10
2023-04-27T17:02:24.342Z,29.40
2023-04-27T17:07:32.985Z,30.30
2023-04-27T17:12:37.675Z,28.40
2023-04-27T17:17:41.873Z,29.00
2023-04-27T17:22:46.682Z,33.00
2023-04-27T17:27:52.441Z,23.70
2023-04-27T17:32:57.628Z,26.30
2023-04-27T17:38:01.952Z,19.70
2023-04-27T17:43:06.195Z,31.80
2023-04-27T17:48:10.997Z,23.10
2023-04-27T17:53:15.789Z,26.40
2023-04-27T17:58:19.810Z,23.20
2023-04-27T18:03:24.250Z,27.60
2023-04-27T18:08:28.589Z,26.40
2023-04-27T18:13:33.479Z,24.50
2023-04-27T18:18:37.679Z,27.80
2023-04-27T18:23:42.939Z,25.50
2023-04-27T18:28:48.816Z,32.20
2023-04-27T18:33:53.466Z,23.00
2023-04-27T18:38:58.618Z,30.60
2023-04-27T18:44:07.042Z,27.80
2023-04-27T18:49:11.190Z,33.70
2023-04-27T18:54:15.417Z,35.90
2023-04-27T18:59:22.408Z,30.60
2023-04-27T19:04:28.464Z,32.10
2023-04-27T19:09:33.874Z,26.90
2023-04-27T19:14:40.449Z,30.80
2023-04-27T19:19:46.361Z,24.80
2023-04-27T19:24:51.714Z,30.70
2023-04-27T19:29:59.019Z,33.00
2023-04-27T19:35:03.187Z,38.30
2023-04-27T19:40:09.002Z,52.80
2023-04-27T19:45:14.209Z,66.50
2023-04-27T19:50:18.819Z,83.80
2023-04-27T19:55:23.259Z,104.70
2023-04-27T20:00:28.117Z,101.10
2023-04-27T20:05:32.343Z,91.90
2023-04-27T20:10:36.597Z,94.10
2023-04-27T20:15:41.150Z,80.20
2023-04-27T20:20:45.775Z,81.70
2023-04-27T20:25:49.898Z,77.50
2023-04-27T20:30:53.837Z,75.50
2023-04-27T20:36:03.579Z,72.00
2023-04-27T20:41:13.265Z,73.00
2023-04-27T20:46:18.100Z,68.80
2023-04-27T20:51:24.104Z,75.50
2023-04-27T20:56:30.995Z,65.00
2023-04-27T21:01:34.975Z,71.40
2023-04-27T21:06:39.865Z,69.70
2023-04-27T21:11:43.908Z,60.20
2023-04-27T21:16:48.117Z,60.90
2023-04-27T21:21:52.083Z,58.00
2023-04-27T21:26:56.195Z,59.40
2023-04-27T21:32:00.036Z,66.20
2023-04-27T21:37:04.067Z,59.30
2023-04-27T21:42:08.106Z,54.50
2023-04-27T21:47:12.578Z,56.10
2023-04-27T21:52:16.577Z,57.90
2023-04-27T21:57:20.805Z,56.10
2023-04-27T22:02:25.478Z,57.10
2023-04-27T22:07:29.816Z,52.60
2023-04-27T22:12:34.364Z,54.30
2023-04-27T22:17:40.157Z,47.20
2023-04-27T22:22:44.370Z,53.20
2023-04-27T22:27:49.014Z,48.70
2023-04-27T22:32:54.814Z,46.40
2023-04-27T22:38:00.150Z,51.10
2023-04-27T22:43:04.383Z,48.40
2023-04-27T22:48:08.598Z,46.40
2023-04-27T22:53:12.951Z,41.70
2023-04-27T22:58:17.107Z,45.20
2023-04-27T23:03:22.895Z,43.50
2023-04-27T23:08:27.113Z,37.90
2023-04-27T23:13:32.062Z,43.70
2023-04-27T23:18:36.285Z,38.20
2023-04-27T23:23:40.429Z,39.40
2023-04-27T23:28:44.971Z,48.30
2023-04-27T23:33:48.898Z,38.10
2023-04-27T23:38:54.460Z,39.90
2023-04-27T23:43:58.418Z,37.20
2023-04-27T23:49:02.994Z,32.80
2023-04-27T23:54:06.989Z,35.40
2023-04-27T23:59:11.649Z,37.30
